KSAD/SAD METAR and TAF weather

Enter ICAO airport designator
Station Type Date Time Source
KSAD METAR 2019/12/08 10:51 UTC NOAA

KSAD 081051Z AUTO 00000KT 10SM BKN065 OVC090 11/10 A3009 RMK AO2 SLP163 T01110100


Station Type Date Time Source
KSAD Decoded METAR 2019/12/08 10:51 UTC NOAA

SAFFORD MUNICIPAL AIRPORT, AZ, United States (KSAD) 32-51N 109-38W 962M
Dec 08, 2019 - 05:51 AM EST / 2019.12.08 1051 UTC
Wind: Calm:0
Visibility: 10 mile(s):0
Sky conditions: overcast
Temperature: 52.0 F (11.1 C)
Dew Point: 50.0 F (10.0 C)
Relative Humidity: 92%
Pressure (altimeter): 30.09 in. Hg (1018 hPa)
ob: KSAD 081051Z AUTO 00000KT 10SM BKN065 OVC090 11/10 A3009 RMK AO2 SLP163 T01110100
cycle: 11

Station Type Date Time Source
KSAD TAF UTC NOAA

Error!

Example: see airport list